createdAt,value
2023-04-01T00:01:17.996Z,8.29
2023-04-01T00:02:50.237Z,8.27
2023-04-01T00:04:22.545Z,8.26
2023-04-01T00:05:58.493Z,8.27
2023-04-01T00:07:31.040Z,8.24
2023-04-01T00:09:03.165Z,8.25
2023-04-01T00:10:37.994Z,8.26
2023-04-01T00:12:10.114Z,8.24
2023-04-01T00:13:42.846Z,8.24
2023-04-01T00:15:14.975Z,8.23
2023-04-01T00:16:47.161Z,8.22
2023-04-01T00:18:19.535Z,8.25
2023-04-01T00:19:51.725Z,8.25
2023-04-01T00:21:24.232Z,8.28
2023-04-01T00:22:56.769Z,8.31
2023-04-01T00:24:28.979Z,8.33
2023-04-01T00:26:04.741Z,8.38
2023-04-01T00:27:36.828Z,8.37
2023-04-01T00:29:09.330Z,8.37
2023-04-01T00:30:42.009Z,8.40
2023-04-01T00:32:14.195Z,8.43
2023-04-01T00:33:46.257Z,8.45
2023-04-01T00:35:18.414Z,8.49
2023-04-01T00:36:51.439Z,8.50
2023-04-01T00:38:24.163Z,8.51
2023-04-01T00:39:56.608Z,8.54
2023-04-01T00:41:29.577Z,8.53
2023-04-01T00:43:01.835Z,8.50
2023-04-01T00:44:35.839Z,8.49
2023-04-01T00:46:08.026Z,8.46
2023-04-01T00:47:40.224Z,8.43
2023-04-01T00:49:12.424Z,8.44
2023-04-01T00:50:49.337Z,8.48
2023-04-01T00:52:24.738Z,8.51
2023-04-01T00:53:58.186Z,8.53
2023-04-01T00:55:31.031Z,8.58
2023-04-01T00:57:06.914Z,8.53
2023-04-01T00:58:42.907Z,8.54
2023-04-01T01:00:16.813Z,8.53
2023-04-01T01:01:48.992Z,8.50
2023-04-01T01:03:21.278Z,8.50
2023-04-01T01:04:53.726Z,8.52
2023-04-01T01:06:33.142Z,8.56
2023-04-01T01:08:19.759Z,8.60
2023-04-01T01:10:05.308Z,8.64
2023-04-01T01:11:59.218Z,8.67
2023-04-01T01:13:38.108Z,8.68
2023-04-01T01:15:42.282Z,8.69
2023-04-01T01:17:21.889Z,8.70
2023-04-01T01:19:23.880Z,8.71
2023-04-01T01:21:33.980Z,8.71
2023-04-01T01:23:10.837Z,8.64
2023-04-01T01:24:45.911Z,8.65
2023-04-01T01:26:22.438Z,8.60
2023-04-01T01:28:14.036Z,8.60
2023-04-01T01:29:51.988Z,8.56
2023-04-01T01:31:50.375Z,8.59
2023-04-01T01:33:57.912Z,8.60
2023-04-01T01:35:36.327Z,8.63
2023-04-01T01:37:15.441Z,8.67
2023-04-01T01:38:47.998Z,8.65
2023-04-01T01:40:22.547Z,8.68
2023-04-01T01:41:55.754Z,8.70
2023-04-01T01:43:32.345Z,8.72
2023-04-01T01:45:05.853Z,8.74
2023-04-01T01:46:37.771Z,8.78
2023-04-01T01:48:10.895Z,8.77
2023-04-01T01:49:43.844Z,8.78
2023-04-01T01:51:16.328Z,8.75
2023-04-01T01:52:48.532Z,8.75
2023-04-01T01:54:21.025Z,8.76
2023-04-01T01:55:53.514Z,8.75
2023-04-01T01:57:29.410Z,8.81
2023-04-01T01:59:07.003Z,8.81
2023-04-01T02:00:39.513Z,8.80
2023-04-01T02:02:12.423Z,8.80
2023-04-01T02:03:46.980Z,8.82
2023-04-01T02:05:22.988Z,8.86
2023-04-01T02:06:59.865Z,8.89
2023-04-01T02:08:42.863Z,8.93
2023-04-01T02:10:15.478Z,8.87
2023-04-01T02:11:51.728Z,8.90
2023-04-01T02:13:32.847Z,8.94
2023-04-01T02:15:09.599Z,8.98
2023-04-01T02:16:44.875Z,8.96
2023-04-01T02:18:18.128Z,9.00
2023-04-01T02:20:02.824Z,9.03
2023-04-01T02:21:35.805Z,9.02
2023-04-01T02:23:09.371Z,9.06
2023-04-01T02:24:42.210Z,9.09
2023-04-01T02:26:14.590Z,9.14
2023-04-01T02:27:47.349Z,9.15
2023-04-01T02:29:27.043Z,9.17
2023-04-01T02:31:01.941Z,9.17
2023-04-01T02:32:35.924Z,9.14
2023-04-01T02:34:10.478Z,9.14
2023-04-01T02:35:42.773Z,9.10
2023-04-01T02:37:15.550Z,9.14
2023-04-01T02:38:48.405Z,9.15
2023-04-01T02:40:20.777Z,9.10
2023-04-01T02:41:53.180Z,9.06
2023-04-01T02:43:25.473Z,9.00
2023-04-01T02:44:57.617Z,9.03
2023-04-01T02:46:29.748Z,9.01
2023-04-01T02:49:33.675Z,9.05
2023-04-01T02:51:05.884Z,9.09
2023-04-01T02:52:38.492Z,9.16
2023-04-01T02:54:10.741Z,9.20
2023-04-01T02:55:43.115Z,9.20
2023-04-01T02:57:15.268Z,9.27
2023-04-01T02:58:47.827Z,9.32
2023-04-01T03:00:20.148Z,9.32
2023-04-01T03:01:52.389Z,9.34
2023-04-01T03:03:24.537Z,9.38
2023-04-01T03:04:56.655Z,9.39
2023-04-01T03:06:28.782Z,9.34
2023-04-01T03:08:01.073Z,9.33
2023-04-01T03:09:33.173Z,9.32
2023-04-01T03:11:05.995Z,9.33
2023-04-01T03:12:38.405Z,9.32
2023-04-01T03:14:10.589Z,9.35
2023-04-01T03:15:42.775Z,9.36
2023-04-01T03:17:14.969Z,9.37
2023-04-01T03:18:47.276Z,9.38
2023-04-01T03:20:19.411Z,9.40
2023-04-01T03:21:51.513Z,9.46
2023-04-01T03:23:25.594Z,9.44
2023-04-01T03:24:57.690Z,9.45
2023-04-01T03:26:29.943Z,9.48
2023-04-01T03:28:02.531Z,9.50
2023-04-01T03:29:34.656Z,9.52
2023-04-01T03:31:06.928Z,9.59
2023-04-01T03:32:39.186Z,9.61
2023-04-01T03:34:11.424Z,9.63
2023-04-01T03:35:43.614Z,9.67
2023-04-01T03:37:16.011Z,9.66
2023-04-01T03:38:48.253Z,9.66
2023-04-01T03:40:21.068Z,9.67
2023-04-01T03:41:53.166Z,9.67
2023-04-01T03:43:25.244Z,9.67
2023-04-01T03:44:57.410Z,9.68
2023-04-01T03:46:29.689Z,9.69
2023-04-01T03:48:01.785Z,9.72
2023-04-01T03:49:34.798Z,9.76
2023-04-01T03:51:10.066Z,9.81
2023-04-01T03:52:42.254Z,9.80
2023-04-01T03:54:14.382Z,9.90
2023-04-01T03:55:46.657Z,10.12
2023-04-01T03:57:18.809Z,10.31
2023-04-01T03:58:51.093Z,10.55
2023-04-01T04:00:23.360Z,10.86
2023-04-01T04:01:55.685Z,11.15
2023-04-01T04:03:28.428Z,11.39
2023-04-01T04:05:00.735Z,11.61
2023-04-01T04:06:33.865Z,11.74
2023-04-01T04:08:06.166Z,12.05
2023-04-01T04:09:38.308Z,12.41
2023-04-01T04:11:10.750Z,12.77
2023-04-01T04:12:42.899Z,13.02
2023-04-01T04:14:15.000Z,13.20
2023-04-01T04:15:47.107Z,13.38
2023-04-01T04:17:19.219Z,13.48
2023-04-01T04:18:52.507Z,13.56
2023-04-01T04:20:24.615Z,13.68
2023-04-01T04:21:56.674Z,13.86
2023-04-01T04:23:31.110Z,13.92
2023-04-01T04:25:03.336Z,14.03
2023-04-01T04:26:35.647Z,14.11
2023-04-01T04:28:07.764Z,14.21
2023-04-01T04:29:40.141Z,14.28
2023-04-01T04:31:12.585Z,14.28
2023-04-01T04:32:44.805Z,14.30
2023-04-01T04:34:16.960Z,14.26
2023-04-01T04:35:49.547Z,14.27
2023-04-01T04:37:21.715Z,14.26
2023-04-01T04:38:53.861Z,14.25
2023-04-01T04:40:26.060Z,14.23
2023-04-01T04:41:58.175Z,14.24
2023-04-01T04:43:30.387Z,14.19
2023-04-01T04:45:02.490Z,14.20
2023-04-01T04:46:34.859Z,14.18
2023-04-01T04:48:19.833Z,14.14
2023-04-01T04:49:52.392Z,14.07
2023-04-01T04:51:25.868Z,14.01
2023-04-01T04:52:57.973Z,13.93
2023-04-01T04:54:30.870Z,13.87
2023-04-01T04:56:03.069Z,13.81
2023-04-01T04:57:35.211Z,13.73
2023-04-01T04:59:08.015Z,13.64
2023-04-01T05:00:40.249Z,13.59
2023-04-01T05:02:13.003Z,13.52
2023-04-01T05:03:45.918Z,13.44
2023-04-01T05:05:18.316Z,13.37
2023-04-01T05:06:50.797Z,13.33
2023-04-01T05:08:22.905Z,13.29
2023-04-01T05:09:55.072Z,13.25
2023-04-01T05:11:27.741Z,13.16
2023-04-01T05:13:00.308Z,13.14
2023-04-01T05:14:32.477Z,13.05
2023-04-01T05:16:05.005Z,13.01
2023-04-01T05:17:37.175Z,12.87
2023-04-01T05:19:09.441Z,12.74
2023-04-01T05:20:47.965Z,12.72
2023-04-01T05:22:20.153Z,12.66
2023-04-01T05:23:52.273Z,12.64
2023-04-01T05:25:24.512Z,12.58
2023-04-01T05:26:57.508Z,12.53
2023-04-01T05:28:29.653Z,12.50
2023-04-01T05:30:01.786Z,12.51
2023-04-01T05:31:33.938Z,12.45
2023-04-01T05:33:09.235Z,12.41
2023-04-01T05:34:41.367Z,12.37
2023-04-01T05:36:18.527Z,12.37
2023-04-01T05:37:50.771Z,12.34
2023-04-01T05:39:22.991Z,12.32
2023-04-01T05:41:01.094Z,12.33
2023-04-01T05:42:33.522Z,12.27
2023-04-01T05:44:06.730Z,12.31
2023-04-01T05:47:10.831Z,12.24
2023-04-01T05:48:43.005Z,12.23
2023-04-01T05:50:15.199Z,12.21
2023-04-01T05:51:47.351Z,12.20
2023-04-01T05:53:19.646Z,12.15
2023-04-01T05:54:51.877Z,12.17
2023-04-01T05:56:24.103Z,12.16
2023-04-01T05:57:56.356Z,12.17
2023-04-01T05:59:28.576Z,12.18
2023-04-01T06:01:10.099Z,12.22
2023-04-01T06:02:45.112Z,12.19
2023-04-01T06:04:19.044Z,12.23
2023-04-01T06:05:51.569Z,12.21
2023-04-01T06:07:23.777Z,12.24
2023-04-01T06:08:58.113Z,12.25
2023-04-01T06:11:01.081Z,12.31
2023-04-01T06:12:44.656Z,12.33
2023-04-01T06:14:32.840Z,12.36
2023-04-01T06:16:33.149Z,12.40
2023-04-01T06:18:36.265Z,12.40
2023-04-01T06:20:40.915Z,12.42
2023-04-01T06:22:22.157Z,12.38
2023-04-01T06:24:33.284Z,12.44
2023-04-01T06:26:23.316Z,12.40
2023-04-01T06:28:23.558Z,12.39
2023-04-01T06:30:21.268Z,12.35
2023-04-01T06:32:24.123Z,12.38
2023-04-01T06:34:03.108Z,12.39
2023-04-01T06:35:54.212Z,12.50
2023-04-01T06:38:07.218Z,12.50
2023-04-01T06:39:48.072Z,12.54
2023-04-01T06:41:26.611Z,12.55
2023-04-01T06:43:11.391Z,12.57
2023-04-01T06:44:53.214Z,12.57
2023-04-01T06:46:46.916Z,12.58
2023-04-01T06:48:37.361Z,12.58
2023-04-01T06:50:30.101Z,12.60
2023-04-01T06:52:24.943Z,12.62
2023-04-01T06:54:02.286Z,12.50
2023-04-01T06:55:39.171Z,12.60
2023-04-01T06:57:34.612Z,12.68
2023-04-01T06:59:19.559Z,12.67
2023-04-01T07:01:14.325Z,12.72
2023-04-01T07:02:59.558Z,12.74
2023-04-01T07:04:33.963Z,12.72
2023-04-01T07:06:09.796Z,12.70
2023-04-01T07:07:47.942Z,12.75
2023-04-01T07:09:23.512Z,12.76
2023-04-01T07:11:03.505Z,12.79
2023-04-01T07:12:44.935Z,12.83
2023-04-01T07:14:27.913Z,12.86
2023-04-01T07:16:05.758Z,12.86
2023-04-01T07:17:38.373Z,12.85
2023-04-01T07:19:16.575Z,12.88
2023-04-01T07:20:49.522Z,12.88
2023-04-01T07:22:31.848Z,12.90
2023-04-01T07:24:12.151Z,12.92
2023-04-01T07:25:49.784Z,12.94
2023-04-01T07:27:21.928Z,12.94
2023-04-01T07:30:31.896Z,12.94
2023-04-01T07:32:18.833Z,13.01
2023-04-01T07:34:15.510Z,13.06
2023-04-01T07:36:03.320Z,13.07
2023-04-01T07:38:10.865Z,13.11
2023-04-01T07:40:26.394Z,13.11
2023-04-01T07:42:29.001Z,13.14
2023-04-01T07:44:06.619Z,13.14
2023-04-01T07:45:52.801Z,13.19
2023-04-01T07:47:41.487Z,13.21
2023-04-01T07:49:58.437Z,13.27
2023-04-01T07:51:37.779Z,13.31
2023-04-01T07:53:41.861Z,13.35
2023-04-01T07:55:26.077Z,13.36
2023-04-01T07:57:07.553Z,13.33
2023-04-01T07:59:04.448Z,13.40
2023-04-01T08:00:42.322Z,13.39
2023-04-01T08:02:43.673Z,13.40
2023-04-01T08:04:24.892Z,13.42
2023-04-01T08:06:36.032Z,13.43
2023-04-01T08:08:27.581Z,13.44
2023-04-01T08:10:14.126Z,13.42
2023-04-01T08:11:59.871Z,13.45
2023-04-01T08:13:59.296Z,13.48
2023-04-01T08:15:52.365Z,13.48
2023-04-01T08:17:31.036Z,13.48
2023-04-01T08:19:32.573Z,13.52
2023-04-01T08:21:09.186Z,13.51
2023-04-01T08:22:48.182Z,13.54
2023-04-01T08:24:47.172Z,13.56
2023-04-01T08:26:41.302Z,13.60
2023-04-01T08:28:23.476Z,13.60
2023-04-01T08:30:04.742Z,13.54
2023-04-01T08:31:54.615Z,13.59
2023-04-01T08:33:29.364Z,13.63
2023-04-01T08:35:37.651Z,13.71
2023-04-01T08:37:18.969Z,13.79
2023-04-01T08:38:58.065Z,13.81
2023-04-01T08:41:01.691Z,13.83
2023-04-01T08:42:34.469Z,13.82
2023-04-01T08:44:25.207Z,13.86
2023-04-01T08:46:42.441Z,13.97
2023-04-01T08:48:34.377Z,14.02
2023-04-01T08:50:26.802Z,14.01
2023-04-01T08:52:01.778Z,13.96
2023-04-01T08:53:58.213Z,14.06
2023-04-01T08:55:42.667Z,14.04
2023-04-01T08:57:31.016Z,14.09
2023-04-01T08:59:47.295Z,14.12
2023-04-01T09:01:54.836Z,14.18
2023-04-01T09:03:45.521Z,14.23
2023-04-01T09:05:45.684Z,14.28
2023-04-01T09:07:26.756Z,14.31
2023-04-01T09:09:27.143Z,14.38
2023-04-01T09:11:13.358Z,14.50
2023-04-01T09:12:45.391Z,14.51
2023-04-01T09:14:36.381Z,14.63
2023-04-01T09:17:00.857Z,14.68
2023-04-01T09:18:51.210Z,14.73
2023-04-01T09:20:34.624Z,14.78
2023-04-01T09:22:12.469Z,14.81
2023-04-01T09:24:11.870Z,14.91
2023-04-01T09:25:55.382Z,14.98
2023-04-01T09:27:30.084Z,15.02
2023-04-01T09:29:19.640Z,15.09
2023-04-01T09:31:18.679Z,15.16
2023-04-01T09:33:15.489Z,15.21
2023-04-01T09:35:24.988Z,15.29
2023-04-01T09:37:19.396Z,15.36
2023-04-01T09:39:12.004Z,15.44
2023-04-01T09:41:09.240Z,15.52
2023-04-01T09:43:02.951Z,15.57
2023-04-01T09:45:02.031Z,15.65
2023-04-01T09:46:34.180Z,15.67
2023-04-01T09:48:09.436Z,15.74
2023-04-01T09:50:07.083Z,15.79
2023-04-01T09:51:53.342Z,15.82
2023-04-01T09:53:50.278Z,15.90
2023-04-01T09:55:31.265Z,15.92
2023-04-01T09:57:09.392Z,15.94
2023-04-01T09:58:53.531Z,16.06
2023-04-01T10:00:44.616Z,16.11
2023-04-01T10:02:44.360Z,16.17
2023-04-01T10:04:53.824Z,16.29
2023-04-01T10:06:57.977Z,16.36
2023-04-01T10:08:53.818Z,16.34
2023-04-01T10:10:31.701Z,16.33
2023-04-01T10:12:03.839Z,16.32
2023-04-01T10:14:13.418Z,16.42
2023-04-01T10:16:09.164Z,16.48
2023-04-01T10:18:21.441Z,16.62
2023-04-01T10:20:15.214Z,16.76
2023-04-01T10:23:56.039Z,16.80
2023-04-01T10:25:46.926Z,16.80
2023-04-01T10:27:56.688Z,16.82
2023-04-01T10:29:33.300Z,16.81
2023-04-01T10:31:21.726Z,16.84
2023-04-01T10:33:17.234Z,16.87
2023-04-01T10:35:04.146Z,16.84
2023-04-01T10:36:48.479Z,16.85
2023-04-01T10:38:44.835Z,16.97
2023-04-01T10:40:47.795Z,17.12
2023-04-01T10:42:30.326Z,17.05
2023-04-01T10:44:39.823Z,16.98
2023-04-01T10:46:29.872Z,16.94
2023-04-01T10:48:26.461Z,16.92
2023-04-01T10:50:04.437Z,16.88
2023-04-01T10:52:23.269Z,16.92
2023-04-01T10:54:32.879Z,17.07
2023-04-01T10:56:25.167Z,17.03
2023-04-01T10:58:43.370Z,17.12
2023-04-01T11:00:27.273Z,17.04
2023-04-01T11:02:24.104Z,17.10
2023-04-01T11:04:33.803Z,17.05
2023-04-01T11:06:29.643Z,16.95
2023-04-01T11:08:33.084Z,16.94
2023-04-01T11:10:42.813Z,16.87
2023-04-01T11:12:45.693Z,16.83
2023-04-01T11:14:36.403Z,16.78
2023-04-01T11:16:45.901Z,16.75
2023-04-01T11:19:03.162Z,16.75
2023-04-01T11:20:56.299Z,16.79
2023-04-01T11:22:31.272Z,16.72
2023-04-01T11:24:32.978Z,16.81
2023-04-01T11:26:16.903Z,16.85
2023-04-01T11:28:06.977Z,16.93
2023-04-01T11:30:09.586Z,17.03
2023-04-01T11:31:59.808Z,17.05
2023-04-01T11:33:52.497Z,17.02
2023-04-01T11:35:27.654Z,16.87
2023-04-01T11:37:21.478Z,16.86
2023-04-01T11:39:02.682Z,16.92
2023-04-01T11:41:00.706Z,16.96
2023-04-01T11:42:53.175Z,16.87
2023-04-01T11:44:28.681Z,16.82
2023-04-01T11:46:16.683Z,16.70
2023-04-01T11:47:58.560Z,16.77
2023-04-01T11:49:49.261Z,16.82
2023-04-01T11:51:46.072Z,16.77
2023-04-01T11:53:33.183Z,16.70
2023-04-01T11:55:29.466Z,16.61
2023-04-01T11:57:39.159Z,16.62
2023-04-01T11:59:31.569Z,16.69
2023-04-01T12:01:03.805Z,16.62
2023-04-01T12:02:50.527Z,16.61
2023-04-01T12:04:37.223Z,16.54
2023-04-01T12:06:27.981Z,16.41
2023-04-01T12:08:15.285Z,16.33
2023-04-01T12:10:26.314Z,16.32
2023-04-01T12:12:33.873Z,16.31
2023-04-01T12:14:20.707Z,16.18
2023-04-01T12:16:24.397Z,16.17
2023-04-01T12:18:19.450Z,16.08
2023-04-01T12:20:12.762Z,16.05
2023-04-01T12:21:54.218Z,16.08
2023-04-01T12:23:48.864Z,16.10
2023-04-01T12:25:39.425Z,16.09
2023-04-01T12:27:30.494Z,16.01
2023-04-01T12:29:09.214Z,15.93
2023-04-01T12:30:51.970Z,15.89
2023-04-01T12:32:36.841Z,15.84
2023-04-01T12:34:46.894Z,15.91
2023-04-01T12:36:49.947Z,15.81
2023-04-01T12:38:49.536Z,15.82
2023-04-01T12:40:38.891Z,15.81
2023-04-01T12:42:33.025Z,15.80
2023-04-01T12:44:08.374Z,15.76
2023-04-01T12:46:18.392Z,15.77
2023-04-01T12:48:05.672Z,15.75
2023-04-01T12:49:49.559Z,15.71
2023-04-01T12:51:41.937Z,15.71
2023-04-01T12:53:44.922Z,15.66
2023-04-01T12:55:28.793Z,15.57
2023-04-01T12:57:07.633Z,15.51
2023-04-01T12:59:04.116Z,15.36
2023-04-01T13:01:11.777Z,15.26
2023-04-01T13:03:20.510Z,15.14
2023-04-01T13:05:07.497Z,15.02
2023-04-01T13:06:45.449Z,14.86
2023-04-01T13:09:18.277Z,14.68
2023-04-01T13:11:19.040Z,14.52
2023-04-01T13:14:57.899Z,13.92
2023-04-01T13:18:37.844Z,13.43
2023-04-01T13:20:22.432Z,13.45
2023-04-01T13:22:08.846Z,13.31
2023-04-01T13:24:08.031Z,13.22
2023-04-01T13:26:07.050Z,13.20
2023-04-01T13:27:46.493Z,13.13
2023-04-01T13:29:23.752Z,13.13
2023-04-01T13:31:20.710Z,13.15
2023-04-01T13:33:42.394Z,13.16
2023-04-01T13:35:23.789Z,13.14
2023-04-01T13:37:20.116Z,13.15
2023-04-01T13:38:56.915Z,13.09
2023-04-01T13:41:02.290Z,13.14
2023-04-01T13:42:39.832Z,13.14
2023-04-01T13:44:16.180Z,13.15
2023-04-01T13:46:19.887Z,13.19
2023-04-01T13:48:05.931Z,13.16
2023-04-01T13:50:03.150Z,13.22
2023-04-01T13:53:34.029Z,13.27
2023-04-01T13:55:21.382Z,13.29
2023-04-01T14:00:55.170Z,13.32
2023-04-01T14:03:05.104Z,13.37
2023-04-01T14:04:51.671Z,13.40
2023-04-01T14:06:55.092Z,13.42
2023-04-01T14:09:01.229Z,13.43
2023-04-01T14:10:51.505Z,13.43
2023-04-01T14:12:33.489Z,13.40
2023-04-01T14:14:17.544Z,13.40
2023-04-01T14:15:58.852Z,13.36
2023-04-01T14:17:57.874Z,13.34
2023-04-01T14:19:47.907Z,13.37
2023-04-01T14:21:53.886Z,13.39
2023-04-01T14:23:33.541Z,13.40
2023-04-01T14:25:43.240Z,13.45
2023-04-01T14:27:21.074Z,13.49
2023-04-01T14:29:27.101Z,13.67
2023-04-01T14:31:18.445Z,13.77
2023-04-01T14:33:09.642Z,13.91
2023-04-01T14:34:51.495Z,14.00
2023-04-01T14:37:01.048Z,14.16
2023-04-01T14:39:24.505Z,14.27
2023-04-01T14:41:17.470Z,14.17
2023-04-01T14:43:07.745Z,14.13
2023-04-01T14:44:47.498Z,14.13
2023-04-01T14:46:48.097Z,14.22
2023-04-01T14:48:38.056Z,14.29
2023-04-01T14:50:22.207Z,14.28
2023-04-01T14:51:54.907Z,14.30
2023-04-01T14:53:29.100Z,14.30
2023-04-01T15:26:44.862Z,14.27
2023-04-01T15:28:55.731Z,14.37
2023-04-01T15:31:05.188Z,14.52
2023-04-01T15:32:59.138Z,14.53
2023-04-01T15:34:42.184Z,14.51
2023-04-01T15:36:52.847Z,14.47
2023-04-01T15:38:52.626Z,14.49
2023-04-01T15:40:30.112Z,14.51
2023-04-01T15:42:20.464Z,14.57
2023-04-01T15:43:55.422Z,14.53
2023-04-01T15:45:36.526Z,14.52
2023-04-01T15:47:26.049Z,14.54
2023-04-01T15:49:11.045Z,14.50
2023-04-01T15:50:51.488Z,14.43
2023-04-01T15:52:23.789Z,14.30
2023-04-01T15:54:28.065Z,14.28
2023-04-01T15:56:29.937Z,14.22
2023-04-01T15:58:04.737Z,14.09
2023-04-01T15:59:52.639Z,14.06
2023-04-01T16:02:02.033Z,14.02
2023-04-01T16:03:57.305Z,13.97
2023-04-01T16:05:35.427Z,13.89
2023-04-01T16:07:12.602Z,13.82
2023-04-01T16:09:04.300Z,13.78
2023-04-01T16:11:11.694Z,13.73
2023-04-01T16:13:01.500Z,13.69
2023-04-01T16:14:45.953Z,13.63
2023-04-01T16:16:36.896Z,13.64
2023-04-01T16:18:12.074Z,13.54
2023-04-01T16:19:54.734Z,13.48
2023-04-01T16:23:30.853Z,13.22
2023-04-01T16:25:39.894Z,13.23
2023-04-01T16:27:21.051Z,13.15
2023-04-01T16:28:56.606Z,13.01
2023-04-01T16:30:37.691Z,13.06
2023-04-01T16:32:30.032Z,12.99
2023-04-01T16:34:44.285Z,12.65
2023-04-01T16:36:37.929Z,12.40
2023-04-01T16:38:18.744Z,12.25
2023-04-01T16:40:21.797Z,12.19
2023-04-01T16:42:10.510Z,11.98
2023-04-01T16:43:47.730Z,11.89
2023-04-01T16:45:35.289Z,11.82
2023-04-01T16:47:12.092Z,11.73
2023-04-01T16:49:02.241Z,11.67
2023-04-01T16:51:11.341Z,11.60
2023-04-01T16:53:03.515Z,11.50
2023-04-01T16:54:50.296Z,11.46
2023-04-01T16:56:27.134Z,11.41
2023-04-01T16:58:01.452Z,11.39
2023-04-01T17:00:06.594Z,11.42
2023-04-01T17:01:58.858Z,11.44
2023-04-01T17:05:17.095Z,11.39
2023-04-01T17:06:56.452Z,11.40
2023-04-01T17:08:40.854Z,11.32
2023-04-01T17:10:24.258Z,11.31
2023-04-01T17:12:05.838Z,11.30
2023-04-01T17:14:08.212Z,11.27
2023-04-01T17:15:56.021Z,11.25
2023-04-01T17:17:41.758Z,11.24
2023-04-01T17:19:29.944Z,11.21
2023-04-01T17:21:04.027Z,11.17
2023-04-01T17:22:46.278Z,11.20
2023-04-01T17:24:44.221Z,11.22
2023-04-01T17:26:31.044Z,11.17
2023-04-01T17:28:16.893Z,11.16
2023-04-01T17:30:01.420Z,11.14
2023-04-01T17:31:45.899Z,11.11
2023-04-01T17:33:37.996Z,11.06
2023-04-01T17:35:13.204Z,11.01
2023-04-01T17:36:52.697Z,11.03
2023-04-01T17:40:13.867Z,11.02
2023-04-01T17:42:01.790Z,11.03
2023-04-01T17:43:51.444Z,11.08
2023-04-01T17:45:35.148Z,11.06
2023-04-01T17:47:27.135Z,11.07
2023-04-01T17:49:01.926Z,11.07
2023-04-01T17:50:55.023Z,11.08
2023-04-01T17:52:44.973Z,11.07
2023-04-01T17:54:38.880Z,11.02
2023-04-01T17:56:44.505Z,10.97
2023-04-01T17:58:28.271Z,10.92
2023-04-01T18:00:26.310Z,10.89
2023-04-01T18:02:27.118Z,10.84
2023-04-01T18:04:30.257Z,10.78
2023-04-01T18:06:06.600Z,10.65
2023-04-01T18:07:50.868Z,10.56
2023-04-01T18:09:47.743Z,10.53
2023-04-01T18:11:41.247Z,10.51
2023-04-01T18:13:41.209Z,10.55
2023-04-01T18:15:16.019Z,10.49
2023-04-01T18:17:12.968Z,10.53
2023-04-01T18:18:54.754Z,10.48
2023-04-01T18:20:48.220Z,10.42
2023-04-01T18:22:30.145Z,10.39
2023-04-01T18:24:28.473Z,10.37
2023-04-01T18:26:10.339Z,10.32
2023-04-01T18:27:46.345Z,10.25
2023-04-01T18:29:23.533Z,10.21
2023-04-01T18:31:11.375Z,10.19
2023-04-01T18:32:54.905Z,10.15
2023-04-01T18:35:01.800Z,10.13
2023-04-01T18:36:53.435Z,10.09
2023-04-01T18:38:41.884Z,10.05
2023-04-01T18:40:17.237Z,9.95
2023-04-01T18:41:59.023Z,9.88
2023-04-01T18:45:24.819Z,9.78
2023-04-01T18:47:04.916Z,9.72
2023-04-01T18:48:58.122Z,9.72
2023-04-01T18:50:50.162Z,9.72
2023-04-01T18:52:22.282Z,9.65
2023-04-01T18:54:07.012Z,9.66
2023-04-01T18:56:07.542Z,9.67
2023-04-01T18:57:57.962Z,9.57
2023-04-01T18:59:38.816Z,9.46
2023-04-01T19:01:30.377Z,9.39
2023-04-01T19:03:10.280Z,9.32
2023-04-01T19:05:09.813Z,9.36
2023-04-01T19:06:53.374Z,9.38
2023-04-01T19:08:29.939Z,9.38
2023-04-01T19:10:13.312Z,9.32
2023-04-01T19:12:07.877Z,9.32
2023-04-01T19:13:52.528Z,9.33
2023-04-01T19:16:02.035Z,9.35
2023-04-01T19:17:44.364Z,9.30
2023-04-01T19:19:37.891Z,9.26
2023-04-01T19:21:20.589Z,9.18
2023-04-01T19:23:07.733Z,9.15
2023-04-01T19:24:56.286Z,9.11
2023-04-01T19:26:30.707Z,9.10
2023-04-01T19:28:22.655Z,9.08
2023-04-01T19:30:07.739Z,9.07
2023-04-01T19:31:52.708Z,9.07
2023-04-01T19:33:33.763Z,9.10
2023-04-01T19:35:28.098Z,9.10
2023-04-01T19:37:04.192Z,9.11
2023-04-01T19:38:40.693Z,9.08
2023-04-01T19:40:21.896Z,9.12
2023-04-01T19:42:09.251Z,9.09
2023-04-01T19:43:50.996Z,9.09
2023-04-01T19:45:35.217Z,9.06
2023-04-01T19:48:50.234Z,9.05
2023-04-01T19:50:51.980Z,9.05
2023-04-01T19:52:41.560Z,9.04
2023-04-01T19:54:22.650Z,9.03
2023-04-01T19:56:03.864Z,9.05
2023-04-01T19:57:53.974Z,9.06
2023-04-01T19:59:44.007Z,9.03
2023-04-01T20:01:34.732Z,9.03
2023-04-01T20:03:41.782Z,9.04
2023-04-01T20:05:36.737Z,9.06
2023-04-01T20:07:21.593Z,9.09
2023-04-01T20:09:22.852Z,9.15
2023-04-01T20:10:58.113Z,9.19
2023-04-01T20:13:09.183Z,9.23
2023-04-01T20:14:53.473Z,9.26
2023-04-01T20:16:50.923Z,9.30
2023-04-01T20:18:50.141Z,9.34
2023-04-01T20:20:25.981Z,9.32
2023-04-01T20:24:11.510Z,9.35
2023-04-01T20:26:08.104Z,9.34
2023-04-01T20:27:47.898Z,9.34
2023-04-01T20:29:39.744Z,9.29
2023-04-01T20:31:24.353Z,9.30
2023-04-01T20:33:27.825Z,9.30
2023-04-01T20:35:45.207Z,9.35
2023-04-01T20:37:52.555Z,9.37
2023-04-01T20:40:04.592Z,9.39
2023-04-01T20:41:50.902Z,9.38
2023-04-01T20:43:48.096Z,9.39
2023-04-01T20:45:58.403Z,9.43
2023-04-01T20:47:54.933Z,9.44
2023-04-01T20:49:50.427Z,9.40
2023-04-01T20:51:34.664Z,9.40
2023-04-01T20:53:22.706Z,9.38
2023-04-01T20:55:21.512Z,9.37
2023-04-01T20:57:15.401Z,9.35
2023-04-01T20:58:59.784Z,9.33
2023-04-01T21:01:08.481Z,9.34
2023-04-01T21:02:49.283Z,9.30
2023-04-01T21:04:39.521Z,9.32
2023-04-01T21:06:18.467Z,9.32
2023-04-01T21:08:05.812Z,9.34
2023-04-01T21:09:46.774Z,9.35
2023-04-01T21:11:39.981Z,9.39
2023-04-01T21:13:38.253Z,9.41
2023-04-01T21:15:24.038Z,9.44
2023-04-01T21:17:34.553Z,9.43
2023-04-01T21:19:12.504Z,9.36
2023-04-01T21:20:48.687Z,9.34
2023-04-01T21:22:36.011Z,9.36
2023-04-01T21:24:13.885Z,9.34
2023-04-01T21:27:21.808Z,9.34
2023-04-01T21:29:15.416Z,9.38
2023-04-01T21:31:46.374Z,9.39
2023-04-01T21:33:37.256Z,9.36
2023-04-01T21:35:24.289Z,9.37
2023-04-01T21:37:14.588Z,9.38
2023-04-01T21:38:59.190Z,9.40
2023-04-01T21:40:51.906Z,9.47
2023-04-01T21:42:29.943Z,9.47
2023-04-01T21:44:31.916Z,9.50
2023-04-01T21:47:03.409Z,9.56
2023-04-01T21:49:06.217Z,9.51
2023-04-01T21:50:56.360Z,9.51
2023-04-01T21:53:01.508Z,9.52
2023-04-01T21:54:48.569Z,9.53
2023-04-01T21:56:32.508Z,9.56
2023-04-01T21:58:10.275Z,9.59
2023-04-01T21:59:48.335Z,9.51
2023-04-01T22:01:35.565Z,9.55
2023-04-01T22:03:27.204Z,9.50
2023-04-01T22:05:12.843Z,9.50
2023-04-01T22:06:57.587Z,9.47
2023-04-01T22:08:49.967Z,9.43
2023-04-01T22:10:34.947Z,9.40
2023-04-01T22:12:25.202Z,9.38
2023-04-01T22:14:22.860Z,9.43
2023-04-01T22:16:23.438Z,9.40
2023-04-01T22:18:38.610Z,9.44
2023-04-01T22:20:20.840Z,9.45
2023-04-01T22:22:05.073Z,9.46
2023-04-01T22:23:49.474Z,9.45
2023-04-01T22:25:30.276Z,9.46
2023-04-01T22:27:05.265Z,9.42
2023-04-01T22:28:43.539Z,9.47
2023-04-01T22:30:31.833Z,9.46
2023-04-01T22:32:12.654Z,9.46
2023-04-01T22:33:59.745Z,9.45
2023-04-01T22:35:53.783Z,9.46
2023-04-01T22:38:09.064Z,9.41
2023-04-01T22:40:10.205Z,9.44
2023-04-01T22:42:08.241Z,9.43
2023-04-01T22:43:44.879Z,9.41
2023-04-01T22:45:32.699Z,9.43
2023-04-01T22:47:27.668Z,9.44
2023-04-01T22:49:18.362Z,9.47
2023-04-01T22:51:12.555Z,9.47
2023-04-01T22:52:47.247Z,9.45
2023-04-01T22:54:33.618Z,9.51
2023-04-01T22:56:11.446Z,9.49
2023-04-01T22:57:53.632Z,9.50
2023-04-01T22:59:51.211Z,9.51
2023-04-01T23:01:29.070Z,9.51
2023-04-01T23:03:20.882Z,9.53
2023-04-01T23:04:57.606Z,9.50
2023-04-01T23:06:36.724Z,9.44
2023-04-01T23:08:42.430Z,9.46
2023-04-01T23:10:24.817Z,9.42
2023-04-01T23:12:08.849Z,9.40
2023-04-01T23:13:49.686Z,9.39
2023-04-01T23:15:21.992Z,9.34
2023-04-01T23:17:02.685Z,9.36
2023-04-01T23:18:59.661Z,9.36
2023-04-01T23:21:03.169Z,9.38
2023-04-01T23:22:40.801Z,9.34
2023-04-01T23:26:39.484Z,9.19
2023-04-01T23:28:26.771Z,9.17
2023-04-01T23:29:58.991Z,9.07
2023-04-01T23:31:40.601Z,9.11
2023-04-01T23:33:12.904Z,9.08
2023-04-01T23:34:53.445Z,9.17
2023-04-01T23:36:25.917Z,9.16
2023-04-01T23:37:58.087Z,9.14
2023-04-01T23:39:34.304Z,9.15
2023-04-01T23:41:07.580Z,9.09
2023-04-01T23:42:40.724Z,9.09
2023-04-01T23:44:14.629Z,9.02
2023-04-01T23:45:46.830Z,8.97
2023-04-01T23:47:25.676Z,9.00
2023-04-01T23:48:57.883Z,8.93
2023-04-01T23:50:30.155Z,8.89
2023-04-01T23:52:13.794Z,8.92
2023-04-01T23:53:47.461Z,8.89
2023-04-01T23:55:36.261Z,8.87